Accedi per prenotare

Caricamento...

Situazione Metar e Taf aeroporto Pisa - Effemeridi Aeroporto Lucca

[Source: ADDS]
METAR
LIRP 100515Z 10003KT CAVOK 19/18 Q1014 NOSIG =
LIRP 100500Z 1006/1106 14005KT CAVOK BECMG 1010/1012 30010KT BECMG 1022/1024 VRB03KT
TAF
LIRP 100500Z 1006/1106 14005KT CAVOK BECMG 1010/1012 30010KT BECMG 1022/1024 VRB03KT =
SR / SS: 04:21 / 18:29 UTC (Effemeridi LIQL 2020-08-10)